sensor_id;sensor_type;location;lat;lon;timestamp;temperature;humidity
4520;DHT22;2272;49.226;8.108;2023-05-10T18:37:25;15.80;99.90
4520;DHT22;2272;49.226;8.108;2023-05-10T18:39:52;15.50;99.90
4520;DHT22;2272;49.226;8.108;2023-05-10T18:42:19;15.20;99.90
4520;DHT22;2272;49.226;8.108;2023-05-10T18:44:46;15.00;99.90
4520;DHT22;2272;49.226;8.108;2023-05-10T18:47:13;14.80;99.90
4520;DHT22;2272;49.226;8.108;2023-05-10T18:49:39;14.60;99.90
4520;DHT22;2272;49.226;8.108;2023-05-10T18:52:06;14.40;99.90
4520;DHT22;2272;49.226;8.108;2023-05-10T18:54:35;14.20;99.90
4520;DHT22;2272;49.226;8.108;2023-05-10T18:57:01;14.10;99.90
4520;DHT22;2272;49.226;8.108;2023-05-10T18:59:28;13.90;99.90
4520;DHT22;2272;49.226;8.108;2023-05-10T19:01:55;13.80;99.90
4520;DHT22;2272;49.226;8.108;2023-05-10T19:04:22;13.60;99.90
4520;DHT22;2272;49.226;8.108;2023-05-10T19:06:49;13.50;99.90
4520;DHT22;2272;49.226;8.108;2023-05-10T19:09:15;13.30;99.90
4520;DHT22;2272;49.226;8.108;2023-05-10T19:11:46;13.20;99.90
4520;DHT22;2272;49.226;8.108;2023-05-10T19:14:13;13.10;99.90
4520;DHT22;2272;49.226;8.108;2023-05-10T19:16:40;13.00;99.90
4520;DHT22;2272;49.226;8.108;2023-05-10T19:19:06;12.90;99.90
4520;DHT22;2272;49.226;8.108;2023-05-10T19:21:34;12.80;99.90
4520;DHT22;2272;49.226;8.108;2023-05-10T19:24:01;12.70;99.90
4520;DHT22;2272;49.226;8.108;2023-05-10T19:26:28;12.60;99.90
4520;DHT22;2272;49.226;8.108;2023-05-10T19:28:56;12.50;99.90
4520;DHT22;2272;49.226;8.108;2023-05-10T19:31:23;12.50;99.90
4520;DHT22;2272;49.226;8.108;2023-05-10T19:33:50;12.40;99.90
4520;DHT22;2272;49.226;8.108;2023-05-10T19:36:17;12.40;99.90
4520;DHT22;2272;49.226;8.108;2023-05-10T19:49:23;12.20;99.90
4520;DHT22;2272;49.226;8.108;2023-05-10T19:51:50;12.20;99.90
4520;DHT22;2272;49.226;8.108;2023-05-10T19:54:17;12.20;99.90
4520;DHT22;2272;49.226;8.108;2023-05-10T19:56:43;12.20;99.90
4520;DHT22;2272;49.226;8.108;2023-05-10T19:59:10;12.20;99.90
4520;DHT22;2272;49.226;8.108;2023-05-10T20:01:39;12.10;99.90
4520;DHT22;2272;49.226;8.108;2023-05-10T20:04:06;12.10;99.90
4520;DHT22;2272;49.226;8.108;2023-05-10T20:06:35;12.00;99.90
4520;DHT22;2272;49.226;8.108;2023-05-10T20:09:03;12.00;99.90
4520;DHT22;2272;49.226;8.108;2023-05-10T20:11:30;12.00;99.90
4520;DHT22;2272;49.226;8.108;2023-05-10T20:13:57;12.00;99.90
4520;DHT22;2272;49.226;8.108;2023-05-10T20:18:51;12.00;99.90
4520;DHT22;2272;49.226;8.108;2023-05-10T20:21:18;11.90;99.90
4520;DHT22;2272;49.226;8.108;2023-05-10T20:23:48;11.90;99.90
4520;DHT22;2272;49.226;8.108;2023-05-10T20:26:14;11.80;99.90
4520;DHT22;2272;49.226;8.108;2023-05-10T20:28:41;11.80;99.90
4520;DHT22;2272;49.226;8.108;2023-05-10T20:31:09;11.70;99.90
4520;DHT22;2272;49.226;8.108;2023-05-10T20:33:36;11.70;99.90
4520;DHT22;2272;49.226;8.108;2023-05-10T20:36:03;11.60;99.90
4520;DHT22;2272;49.226;8.108;2023-05-10T20:38:30;11.60;99.90
4520;DHT22;2272;49.226;8.108;2023-05-10T20:40:58;11.60;99.90
4520;DHT22;2272;49.226;8.108;2023-05-10T20:43:25;11.50;99.90
4520;DHT22;2272;49.226;8.108;2023-05-10T20:45:54;11.50;99.90
4520;DHT22;2272;49.226;8.108;2023-05-10T20:48:23;11.40;99.90
4520;DHT22;2272;49.226;8.108;2023-05-10T20:50:50;11.40;99.90
4520;DHT22;2272;49.226;8.108;2023-05-10T20:53:17;11.30;99.90
4520;DHT22;2272;49.226;8.108;2023-05-10T20:55:43;11.30;99.90
4520;DHT22;2272;49.226;8.108;2023-05-10T20:58:12;11.30;99.90
4520;DHT22;2272;49.226;8.108;2023-05-10T21:00:38;11.30;99.90
4520;DHT22;2272;49.226;8.108;2023-05-10T21:03:05;11.30;99.90
4520;DHT22;2272;49.226;8.108;2023-05-10T21:05:32;11.30;99.90
4520;DHT22;2272;49.226;8.108;2023-05-10T21:07:59;11.20;99.90
4520;DHT22;2272;49.226;8.108;2023-05-10T21:10:26;11.10;99.90
4520;DHT22;2272;49.226;8.108;2023-05-10T21:12:53;11.10;99.90
4520;DHT22;2272;49.226;8.108;2023-05-10T21:15:22;11.00;99.90
4520;DHT22;2272;49.226;8.108;2023-05-10T21:17:50;11.00;99.90
4520;DHT22;2272;49.226;8.108;2023-05-10T21:20:18;11.00;99.90
4520;DHT22;2272;49.226;8.108;2023-05-10T21:22:44;11.00;99.90
4520;DHT22;2272;49.226;8.108;2023-05-10T21:25:11;11.00;99.90
4520;DHT22;2272;49.226;8.108;2023-05-10T21:27:38;11.00;99.90
4520;DHT22;2272;49.226;8.108;2023-05-10T21:30:06;11.00;99.90
4520;DHT22;2272;49.226;8.108;2023-05-10T21:32:34;10.90;99.90
4520;DHT22;2272;49.226;8.108;2023-05-10T21:35:01;10.90;99.90
4520;DHT22;2272;49.226;8.108;2023-05-10T21:37:28;10.90;99.90
4520;DHT22;2272;49.226;8.108;2023-05-10T21:39:55;10.90;99.90
4520;DHT22;2272;49.226;8.108;2023-05-10T21:42:22;10.90;99.90
4520;DHT22;2272;49.226;8.108;2023-05-10T21:44:49;10.90;99.90
4520;DHT22;2272;49.226;8.108;2023-05-10T21:47:16;10.80;99.90
4520;DHT22;2272;49.226;8.108;2023-05-10T21:49:44;10.80;99.90
4520;DHT22;2272;49.226;8.108;2023-05-10T21:52:11;10.70;99.90
4520;DHT22;2272;49.226;8.108;2023-05-10T21:54:37;10.70;99.90
4520;DHT22;2272;49.226;8.108;2023-05-10T21:57:04;10.60;99.90
4520;DHT22;2272;49.226;8.108;2023-05-10T21:59:31;10.60;99.90
4520;DHT22;2272;49.226;8.108;2023-05-10T22:01:58;10.50;99.90
4520;DHT22;2272;49.226;8.108;2023-05-10T22:04:25;10.40;99.90
4520;DHT22;2272;49.226;8.108;2023-05-10T22:06:53;10.40;99.90
4520;DHT22;2272;49.226;8.108;2023-05-10T22:09:20;10.40;99.90
4520;DHT22;2272;49.226;8.108;2023-05-10T22:11:48;10.40;99.90
4520;DHT22;2272;49.226;8.108;2023-05-10T22:14:15;10.40;99.90
4520;DHT22;2272;49.226;8.108;2023-05-10T22:16:42;10.40;99.90
4520;DHT22;2272;49.226;8.108;2023-05-10T22:19:09;10.30;99.90
4520;DHT22;2272;49.226;8.108;2023-05-10T22:21:36;10.40;99.90
4520;DHT22;2272;49.226;8.108;2023-05-10T22:24:04;10.30;99.90
4520;DHT22;2272;49.226;8.108;2023-05-10T22:26:31;10.30;99.90
4520;DHT22;2272;49.226;8.108;2023-05-10T22:28:58;10.30;99.90
4520;DHT22;2272;49.226;8.108;2023-05-10T22:31:25;10.20;99.90
4520;DHT22;2272;49.226;8.108;2023-05-10T22:33:52;10.20;99.90
4520;DHT22;2272;49.226;8.108;2023-05-10T22:36:19;10.30;99.90
4520;DHT22;2272;49.226;8.108;2023-05-10T22:38:46;10.30;99.90
4520;DHT22;2272;49.226;8.108;2023-05-10T22:41:15;10.20;99.90
4520;DHT22;2272;49.226;8.108;2023-05-10T22:43:42;10.20;99.90
4520;DHT22;2272;49.226;8.108;2023-05-10T22:46:09;10.20;99.90
4520;DHT22;2272;49.226;8.108;2023-05-10T22:48:36;10.10;99.90
4520;DHT22;2272;49.226;8.108;2023-05-10T22:51:03;10.00;99.90
4520;DHT22;2272;49.226;8.108;2023-05-10T22:53:30;10.00;99.90
4520;DHT22;2272;49.226;8.108;2023-05-10T22:55:57;10.00;99.90
4520;DHT22;2272;49.226;8.108;2023-05-10T22:58:25;9.90;99.90
4520;DHT22;2272;49.226;8.108;2023-05-10T23:00:53;9.90;99.90
4520;DHT22;2272;49.226;8.108;2023-05-10T23:03:20;9.90;99.90
4520;DHT22;2272;49.226;8.108;2023-05-10T23:05:47;9.90;99.90
4520;DHT22;2272;49.226;8.108;2023-05-10T23:08:21;9.90;99.90
4520;DHT22;2272;49.226;8.108;2023-05-10T23:10:48;9.90;99.90
4520;DHT22;2272;49.226;8.108;2023-05-10T23:13:15;9.80;99.90
4520;DHT22;2272;49.226;8.108;2023-05-10T23:15:44;9.80;99.90
4520;DHT22;2272;49.226;8.108;2023-05-10T23:18:11;9.70;99.90
4520;DHT22;2272;49.226;8.108;2023-05-10T23:20:41;9.60;99.90
4520;DHT22;2272;49.226;8.108;2023-05-10T23:23:11;9.70;99.90
4520;DHT22;2272;49.226;8.108;2023-05-10T23:25:38;9.60;99.90
4520;DHT22;2272;49.226;8.108;2023-05-10T23:28:04;9.60;99.90
4520;DHT22;2272;49.226;8.108;2023-05-10T23:30:32;9.70;99.90
4520;DHT22;2272;49.226;8.108;2023-05-10T23:33:00;9.70;99.90
4520;DHT22;2272;49.226;8.108;2023-05-10T23:35:27;9.80;99.90
4520;DHT22;2272;49.226;8.108;2023-05-10T23:37:55;9.80;99.90
4520;DHT22;2272;49.226;8.108;2023-05-10T23:40:24;9.80;99.90
4520;DHT22;2272;49.226;8.108;2023-05-10T23:42:51;9.70;99.90
4520;DHT22;2272;49.226;8.108;2023-05-10T23:45:18;9.70;99.90
4520;DHT22;2272;49.226;8.108;2023-05-10T23:47:45;9.70;99.90
4520;DHT22;2272;49.226;8.108;2023-05-10T23:50:13;9.60;99.90
4520;DHT22;2272;49.226;8.108;2023-05-10T23:52:40;9.60;99.90
4520;DHT22;2272;49.226;8.108;2023-05-10T23:55:08;9.60;99.90
4520;DHT22;2272;49.226;8.108;2023-05-10T23:57:35;9.60;99.90
